サルタ の空港の天気 - METARとTAF

サルタ空港 ( SASA / SLA ) - アルゼンチン サルタ州、Salta
飛行場実況気象(Metar)
観測時間02/17 20:00 ART (02/17 23:00 UTC)
風向・風速北北東 2m/s
視程10km以上
天気現象
少しの雲 雲底高度 850m
気温24℃
湿度61%
気圧1014hPa
METARSASA 172300Z 02004KT 9999 FEW028 24/16 Q1014
過去の天気等 Google飛行場航空写真 Wunderground天気予報

過去48時間のMETAR

飛行場予報(TAF)
発表時間: 2/17 14:00 ART (2/17 17:00 UTC)
予報対象時間: 17日15時 ART ~ 18日15時 ART
風向・風速北東 3m/s
視程10km以上
全天の8割程度の雲 雲底高度 760m
少しの塔状積雲 雲底高度 910m
17日20時 ART ~ 17日23時 ART に徐々に
視程5000m
天気現象雷雨
全天の8割程度の雲 雲底高度 610m
少しの積乱雲 雲底高度 910m
18日3時 ART ~ 18日6時 ART に徐々に
風向・風速北西 3m/s
視程7000m
天気現象もや
全天の8割程度の雲 雲底高度 460m
18日11時 ART ~ 18日14時 ART に徐々に
風向・風速東北東 5m/s
視程10km以上
全天の4割程度の雲 雲底高度 610m
TAF SASA 171700Z 1718/1818 05005KT 9999 BKN025 FEW030TCU TX29/1818Z TN18/1810Z
BECMG 1723/1802 5000 TSRA BKN020 FEW030CB
BECMG 1806/1809 32005KT 7000 BR BKN015
BECMG 1814/1817 07010KT 9999 SCT020